Time;durP1;ratioP1;P1;durP2;ratioP2;P2;SDS_P1;SDS_P2;PMS_P1;PMS_P2;Temp;Humidity;BMP_temperature;BMP_pressure;BME280_temperature;BME280_humidity;BME280_pressure;Samples;Min_cycle;Max_cycle;Signal;HPM_P1;HPM_P2
2023/09/13 00:01:40;;;;;;;13.18;2.80;;;17.20;99.90;;;;;;5156681;27;20039;-23
2023/09/13 00:04:06;;;;;;;9.23;2.33;;;17.20;99.90;;;;;;5156281;27;20495;-23
2023/09/13 00:06:32;;;;;;;12.15;2.00;;;17.20;99.90;;;;;;5156367;27;20043;-23
2023/09/13 00:08:57;;;;;;;10.32;2.33;;;17.20;99.90;;;;;;5156247;27;20124;-23
2023/09/13 00:11:23;;;;;;;14.55;2.47;;;17.20;99.90;;;;;;5157324;27;20423;-24
2023/09/13 00:13:49;;;;;;;9.13;3.03;;;17.20;99.90;;;;;;5157618;27;20125;-24
2023/09/13 00:16:15;;;;;;;6.15;1.60;;;17.20;99.90;;;;;;5157304;27;20047;-23
2023/09/13 00:18:40;;;;;;;8.15;1.80;;;17.20;99.90;;;;;;5156274;27;20108;-24
2023/09/13 00:21:10;;;;;;;7.40;2.00;;;17.10;99.90;;;;;;5157685;27;20034;-23
2023/09/13 00:23:36;;;;;;;13.05;1.73;;;17.10;99.90;;;;;;5157144;27;20042;-23
2023/09/13 00:26:02;;;;;;;6.65;1.88;;;17.10;99.90;;;;;;5155877;27;20130;-23
2023/09/13 00:28:27;;;;;;;8.80;1.77;;;17.10;99.90;;;;;;5156722;27;20050;-23
2023/09/13 00:30:53;;;;;;;13.90;2.03;;;17.10;99.90;;;;;;5156939;27;20093;-24
2023/09/13 00:33:19;;;;;;;8.15;1.48;;;17.10;99.90;;;;;;5156960;27;20492;-23
2023/09/13 00:35:46;;;;;;;6.53;1.67;;;17.00;99.90;;;;;;5157464;27;20195;-23
2023/09/13 00:38:11;;;;;;;5.57;1.50;;;17.00;99.90;;;;;;5155654;27;20051;-23
2023/09/13 00:40:37;;;;;;;7.57;1.48;;;17.00;99.90;;;;;;5156810;27;20582;-23
2023/09/13 00:43:03;;;;;;;11.20;1.88;;;17.00;99.90;;;;;;5139435;27;20106;-23
2023/09/13 00:45:32;;;;;;;6.72;1.40;;;17.00;99.90;;;;;;5155519;27;20047;-23
2023/09/13 00:47:58;;;;;;;6.97;1.50;;;17.00;99.90;;;;;;5156604;27;20050;-24
2023/09/13 00:50:25;;;;;;;6.30;1.33;;;17.00;99.90;;;;;;5156465;27;20072;-23
2023/09/13 00:52:51;;;;;;;7.03;1.52;;;16.90;99.90;;;;;;5156584;27;20042;-23
2023/09/13 00:55:19;;;;;;;15.30;2.28;;;16.90;99.90;;;;;;5156533;27;20065;-23
2023/09/13 00:57:46;;;;;;;10.00;1.48;;;16.90;99.90;;;;;;5156457;27;20589;-23
2023/09/13 01:00:13;;;;;;;6.45;1.33;;;16.90;99.90;;;;;;5157001;27;20050;-23
2023/09/13 01:02:40;;;;;;;10.48;1.52;;;16.90;99.90;;;;;;5138068;27;20484;-23
2023/09/13 01:05:11;;;;;;;7.63;1.85;;;16.90;99.90;;;;;;5156328;27;20059;-23
2023/09/13 01:07:41;;;;;;;7.40;2.10;;;16.90;99.90;;;;;;5156918;27;20042;-23
2023/09/13 01:10:08;;;;;;;10.40;2.33;;;16.80;99.90;;;;;;5137988;27;20488;-23
2023/09/13 01:12:34;;;;;;;9.93;1.52;;;16.90;99.90;;;;;;5156316;27;20088;-23
2023/09/13 01:15:02;;;;;;;7.45;1.35;;;16.80;99.90;;;;;;5154969;27;20083;-23
2023/09/13 01:17:42;;;;;;;9.35;1.50;;;16.80;99.90;;;;;;5156094;27;20472;-23
2023/09/13 01:20:50;;;;;;;6.65;1.35;;;16.80;99.90;;;;;;5155116;27;20480;-24
2023/09/13 01:23:28;;;;;;;4.47;1.20;;;16.80;99.90;;;;;;5156637;27;20411;-24
2023/09/13 01:26:21;;;;;;;11.93;2.03;;;16.80;99.90;;;;;;5138026;27;20051;-23
2023/09/13 01:28:53;;;;;;;14.32;2.90;;;16.80;99.90;;;;;;5156501;27;20050;-23
2023/09/13 01:31:21;;;;;;;9.98;2.00;;;16.80;99.90;;;;;;5155810;27;20419;-23
2023/09/13 01:33:47;;;;;;;8.70;2.08;;;16.80;99.90;;;;;;5156419;27;20103;-24
2023/09/13 01:36:13;;;;;;;8.27;1.70;;;16.80;99.90;;;;;;5138380;27;20046;-23
2023/09/13 01:38:39;;;;;;;6.07;1.15;;;16.80;99.90;;;;;;5153629;27;20080;-23
2023/09/13 01:41:33;;;;;;;8.40;1.80;;;16.70;99.90;;;;;;5155613;27;20042;-23
2023/09/13 01:43:59;;;;;;;;;;;16.70;99.90;;;;;;5156426;27;20039;-23
2023/09/13 01:46:32;;;;;;;8.82;1.42;;;16.80;99.90;;;;;;5155627;27;19919;-23
2023/09/13 01:48:58;;;;;;;;;;;16.70;99.90;;;;;;5155987;27;20054;-23
2023/09/13 01:51:26;;;;;;;5.63;1.40;;;16.70;99.90;;;;;;5154427;27;19922;-23
2023/09/13 01:53:51;;;;;;;9.98;1.40;;;16.70;99.90;;;;;;5154301;27;20086;-24
2023/09/13 01:56:21;;;;;;;10.10;1.65;;;16.70;99.90;;;;;;5155329;27;20069;-23
2023/09/13 01:58:48;;;;;;;6.82;1.42;;;16.70;99.90;;;;;;5154549;27;20548;-24
2023/09/13 02:01:15;;;;;;;5.45;1.50;;;16.60;99.90;;;;;;5154512;27;20042;-23
2023/09/13 02:03:40;;;;;;;9.27;1.85;;;16.70;99.90;;;;;;5136871;27;20493;-23
2023/09/13 02:06:06;;;;;;;3.33;1.40;;;16.60;99.90;;;;;;5155633;27;20094;-23
2023/09/13 02:08:32;;;;;;;7.53;2.10;;;16.60;99.90;;;;;;5155395;27;20078;-24
2023/09/13 02:10:57;;;;;;;7.82;1.98;;;16.70;99.90;;;;;;5154230;27;20054;-24
2023/09/13 02:13:23;;;;;;;6.38;1.70;;;16.70;99.90;;;;;;5154147;27;20119;-23
2023/09/13 02:15:49;;;;;;;8.02;2.28;;;16.60;99.90;;;;;;5154284;27;20057;-23
2023/09/13 02:18:15;;;;;;;7.78;1.75;;;16.60;99.90;;;;;;5155251;27;20054;-23
2023/09/13 02:20:40;;;;;;;5.90;1.70;;;16.60;99.90;;;;;;5155293;27;20046;-24
2023/09/13 02:23:06;;;;;;;6.28;2.00;;;16.60;99.90;;;;;;5155249;27;20472;-23
2023/09/13 02:25:36;;;;;;;6.20;1.77;;;16.60;99.90;;;;;;5154907;27;20046;-23
2023/09/13 02:28:03;;;;;;;4.63;1.85;;;16.60;99.90;;;;;;5155228;27;20065;-23
2023/09/13 02:30:30;;;;;;;7.90;1.92;;;16.50;99.90;;;;;;5155700;27;20350;-23
2023/09/13 02:32:55;;;;;;;4.18;1.60;;;16.50;99.90;;;;;;5155363;27;20129;-23
2023/09/13 02:35:21;;;;;;;5.22;1.42;;;16.50;99.90;;;;;;5154096;27;20457;-23
2023/09/13 02:37:48;;;;;;;7.88;1.88;;;16.40;99.90;;;;;;5155068;27;20126;-23
2023/09/13 02:40:13;;;;;;;10.13;2.38;;;16.40;99.90;;;;;;5155720;27;20051;-24
2023/09/13 02:42:39;;;;;;;5.22;2.17;;;16.40;99.90;;;;;;5153841;27;20060;-23
2023/09/13 02:45:06;;;;;;;4.25;1.30;;;16.40;99.90;;;;;;5155033;27;20046;-23
2023/09/13 02:47:32;;;;;;;5.22;1.30;;;16.40;99.90;;;;;;5154066;27;20522;-23
2023/09/13 02:49:57;;;;;;;4.20;1.10;;;16.40;99.90;;;;;;5155279;27;20047;-23
2023/09/13 02:52:30;;;;;;;5.38;1.80;;;16.40;99.90;;;;;;5157673;27;20043;-23
2023/09/13 02:55:00;;;;;;;8.32;1.60;;;16.40;99.90;;;;;;5158901;27;20074;-23
2023/09/13 02:57:26;;;;;;;5.90;1.58;;;16.40;99.90;;;;;;5159275;27;20432;-23
2023/09/13 02:59:52;;;;;;;4.57;1.00;;;16.40;99.90;;;;;;5157865;27;20125;-23
2023/09/13 03:02:18;;;;;;;9.13;2.03;;;16.40;99.90;;;;;;5158790;27;20114;-23
2023/09/13 03:04:44;;;;;;;4.38;1.23;;;16.40;99.90;;;;;;5157524;27;20484;-23
2023/09/13 03:07:10;;;;;;;7.65;1.33;;;16.50;99.90;;;;;;5140192;27;20103;-23
2023/09/13 03:09:36;;;;;;;5.47;1.70;;;16.40;99.90;;;;;;5158202;27;20042;-23
2023/09/13 03:12:02;;;;;;;6.78;2.00;;;16.40;99.90;;;;;;5158998;27;20038;-23
2023/09/13 03:14:31;;;;;;;9.50;1.63;;;16.40;99.90;;;;;;5157577;27;20050;-23
2023/09/13 03:16:57;;;;;;;9.90;2.40;;;16.40;99.90;;;;;;5123456;27;20102;-23
2023/09/13 03:19:22;;;;;;;6.57;1.50;;;16.40;99.90;;;;;;5158470;27;20043;-23
2023/09/13 03:21:50;;;;;;;9.02;1.40;;;16.40;99.90;;;;;;5158620;27;20087;-23
2023/09/13 03:24:15;;;;;;;4.53;1.30;;;16.40;99.90;;;;;;5158391;27;20054;-23
2023/09/13 03:26:41;;;;;;;8.23;1.95;;;16.40;99.90;;;;;;5158797;27;20046;-23
2023/09/13 03:29:07;;;;;;;7.13;1.42;;;16.40;99.90;;;;;;5157277;27;20047;-23
2023/09/13 03:31:35;;;;;;;6.95;1.90;;;16.40;99.90;;;;;;5157861;27;20046;-23
2023/09/13 03:34:01;;;;;;;5.55;1.10;;;16.40;99.90;;;;;;5158448;27;20066;-23
2023/09/13 03:36:29;;;;;;;8.02;1.50;;;16.30;99.90;;;;;;5156919;27;20468;-22
2023/09/13 03:38:55;;;;;;;6.63;1.45;;;16.20;99.90;;;;;;5158630;27;20046;-23
2023/09/13 03:41:22;;;;;;;5.13;1.13;;;16.00;99.90;;;;;;5158036;27;20106;-23
2023/09/13 03:43:49;;;;;;;13.48;1.88;;;15.80;99.90;;;;;;5158528;27;20043;-22
2023/09/13 03:46:15;;;;;;;6.82;1.73;;;15.60;99.90;;;;;;5157609;27;20495;-22
2023/09/13 03:48:41;;;;;;;8.63;1.05;;;15.50;99.90;;;;;;5157803;27;20042;-22
2023/09/13 03:51:08;;;;;;;8.50;1.83;;;15.40;99.90;;;;;;5157725;27;20038;-21
2023/09/13 03:53:34;;;;;;;11.18;1.45;;;15.20;99.90;;;;;;5157455;27;20396;-22
2023/09/13 03:56:01;;;;;;;6.72;1.38;;;15.10;99.90;;;;;;5157531;27;20078;-22
2023/09/13 03:58:28;;;;;;;10.07;1.80;;;14.90;99.90;;;;;;5158488;27;20050;-22
2023/09/13 04:00:55;;;;;;;6.90;1.33;;;14.70;99.90;;;;;;5156700;27;20082;-23
2023/09/13 04:03:21;;;;;;;12.15;1.63;;;14.60;99.90;;;;;;5157184;27;20482;-24
2023/09/13 04:05:47;;;;;;;7.57;2.03;;;14.40;99.90;;;;;;5157541;27;20050;-24
2023/09/13 04:08:13;;;;;;;12.18;2.05;;;14.40;99.90;;;;;;5157459;27;20050;-24
2023/09/13 04:10:39;;;;;;;8.80;1.63;;;14.30;99.90;;;;;;5158190;27;20042;-24
2023/09/13 04:13:05;;;;;;;10.55;2.83;;;14.30;99.90;;;;;;5157350;27;20042;-23
2023/09/13 04:15:31;;;;;;;13.15;2.25;;;14.30;99.90;;;;;;5158199;27;20089;-25
2023/09/13 04:17:57;;;;;;;11.85;2.30;;;14.30;99.90;;;;;;5158059;27;20043;-25
2023/09/13 04:20:23;;;;;;;12.23;2.15;;;14.20;99.90;;;;;;5157257;27;20357;-25
2023/09/13 04:22:49;;;;;;;9.68;2.15;;;14.20;99.90;;;;;;5157470;27;20095;-25
2023/09/13 04:25:15;;;;;;;13.98;2.38;;;14.30;99.90;;;;;;5157145;27;20429;-25
2023/09/13 04:27:45;;;;;;;14.68;3.17;;;14.30;99.90;;;;;;5155976;27;20067;-25
2023/09/13 04:30:12;;;;;;;15.05;2.30;;;14.30;99.90;;;;;;5156646;27;20515;-24
2023/09/13 04:32:38;;;;;;;11.00;2.38;;;14.30;99.90;;;;;;5157061;27;20046;-26
2023/09/13 04:35:04;;;;;;;11.65;2.60;;;14.20;99.90;;;;;;5156948;27;20059;-25
2023/09/13 04:37:30;;;;;;;10.07;2.40;;;14.20;99.90;;;;;;5157477;27;20050;-25
2023/09/13 04:39:59;;;;;;;11.40;3.05;;;14.10;99.90;;;;;;5121526;27;20476;-25
2023/09/13 04:42:25;;;;;;;15.55;2.38;;;14.10;99.90;;;;;;5156406;27;20086;-27
2023/09/13 04:44:50;;;;;;;7.82;2.83;;;13.90;99.90;;;;;;5155800;27;20092;-27
2023/09/13 04:47:18;;;;;;;14.13;3.05;;;13.90;99.90;;;;;;5156589;27;20134;-26
2023/09/13 04:49:43;;;;;;;11.82;2.55;;;14.00;99.90;;;;;;5156670;27;20129;-25
2023/09/13 04:52:12;;;;;;;14.48;2.95;;;13.90;99.90;;;;;;5156511;27;20171;-24
2023/09/13 04:54:37;;;;;;;12.07;3.00;;;13.80;99.90;;;;;;5138527;27;20038;-25
2023/09/13 04:57:05;;;;;;;11.00;2.83;;;13.80;99.90;;;;;;5156528;27;20093;-26
2023/09/13 04:59:43;;;;;;;12.85;3.03;;;14.10;99.90;;;;;;5156507;27;20054;-27
2023/09/13 05:02:12;;;;;;;14.80;2.95;;;14.00;99.90;;;;;;5156164;27;20484;-26
2023/09/13 05:04:39;;;;;;;10.30;2.33;;;14.00;99.90;;;;;;5155938;27;20043;-26
2023/09/13 05:07:05;;;;;;;12.85;2.85;;;14.00;99.90;;;;;;5155724;27;20080;-26
2023/09/13 05:09:32;;;;;;;13.63;3.20;;;13.60;99.90;;;;;;5156334;27;20125;-27
2023/09/13 05:11:58;;;;;;;15.68;3.65;;;13.60;99.90;;;;;;5155258;27;20121;-27
2023/09/13 05:14:23;;;;;;;10.93;2.95;;;13.90;99.90;;;;;;5137344;27;20129;-27
2023/09/13 05:16:49;;;;;;;15.75;3.45;;;13.90;99.90;;;;;;5156139;27;20133;-27
2023/09/13 05:19:15;;;;;;;13.07;3.17;;;13.80;99.90;;;;;;5156117;27;20043;-28
2023/09/13 05:21:41;;;;;;;13.45;3.22;;;13.70;99.90;;;;;;5154497;27;20072;-29
2023/09/13 05:24:07;;;;;;;15.20;3.15;;;13.90;99.90;;;;;;5155888;27;20043;-28
2023/09/13 05:26:33;;;;;;;13.85;3.85;;;13.60;99.90;;;;;;5156480;27;20046;-29
2023/09/13 05:28:59;;;;;;;17.98;3.60;;;13.80;99.90;;;;;;5155030;27;20125;-29
2023/09/13 05:31:24;;;;;;;15.73;3.65;;;13.70;99.90;;;;;;5154861;27;20400;-30
2023/09/13 05:33:50;;;;;;;15.60;4.00;;;13.70;99.90;;;;;;5154711;27;20480;-29
2023/09/13 05:36:16;;;;;;;19.98;4.50;;;14.00;99.90;;;;;;5155787;27;20038;-29
2023/09/13 05:38:42;;;;;;;10.98;3.63;;;14.10;99.90;;;;;;5155776;27;20043;-29
2023/09/13 05:41:11;;;;;;;11.85;3.05;;;13.90;99.90;;;;;;5155773;27;20046;-28
2023/09/13 05:43:39;;;;;;;13.88;3.10;;;14.00;99.90;;;;;;5154508;27;20125;-28
2023/09/13 05:46:04;;;;;;;14.10;3.15;;;13.80;99.90;;;;;;5154711;27;20050;-27
2023/09/13 05:48:31;;;;;;;9.77;2.45;;;13.70;99.90;;;;;;5137329;27;20099;-28
2023/09/13 05:50:56;;;;;;;17.42;3.58;;;13.60;99.90;;;;;;5155479;27;20045;-29
2023/09/13 05:53:22;;;;;;;16.98;3.30;;;13.50;99.90;;;;;;5155530;27;20130;-29
2023/09/13 05:55:48;;;;;;;15.38;4.18;;;13.50;99.90;;;;;;5155483;27;20042;-29
2023/09/13 05:58:14;;;;;;;19.13;4.03;;;13.60;99.90;;;;;;5156020;27;20058;-29
2023/09/13 06:00:46;;;;;;;23.95;4.63;;;13.70;99.90;;;;;;5155425;27;20083;-32
2023/09/13 06:03:11;;;;;;;18.17;3.78;;;13.70;99.90;;;;;;5155711;27;20380;-31
2023/09/13 06:05:37;;;;;;;18.38;3.60;;;13.70;99.90;;;;;;5155957;27;20129;-30
2023/09/13 06:08:04;;;;;;;19.67;4.30;;;13.80;99.90;;;;;;5137215;27;20038;-31
2023/09/13 06:10:29;;;;;;;22.05;4.38;;;13.80;99.90;;;;;;5155283;27;20046;-31
2023/09/13 06:12:55;;;;;;;20.10;4.32;;;13.60;99.90;;;;;;5155426;27;20046;-30
2023/09/13 06:15:21;;;;;;;23.58;5.80;;;13.80;99.90;;;;;;5155859;27;20038;-32
2023/09/13 06:17:47;;;;;;;22.00;4.35;;;13.80;99.90;;;;;;5155304;27;20043;-32
2023/09/13 06:20:13;;;;;;;20.02;4.72;;;13.70;99.90;;;;;;5154229;27;20080;-31
2023/09/13 06:22:38;;;;;;;15.50;3.88;;;13.80;99.90;;;;;;5155267;27;20043;-32
2023/09/13 06:25:04;;;;;;;19.20;4.13;;;13.80;99.90;;;;;;5155773;27;20053;-32
2023/09/13 06:27:30;;;;;;;18.75;3.45;;;13.60;99.90;;;;;;5159470;27;20115;-33
2023/09/13 06:29:56;;;;;;;16.25;4.60;;;13.50;99.90;;;;;;5159028;27;20046;-33
2023/09/13 06:32:22;;;;;;;21.30;4.55;;;14.00;99.90;;;;;;5159857;27;20046;-34
2023/09/13 06:34:48;;;;;;;17.83;4.60;;;13.70;99.90;;;;;;5159284;27;20397;-34
2023/09/13 06:37:14;;;;;;;20.63;4.05;;;13.90;99.90;;;;;;5159274;27;20071;-33
2023/09/13 06:39:40;;;;;;;16.00;4.30;;;14.20;99.90;;;;;;5160061;27;20360;-33
2023/09/13 06:42:06;;;;;;;11.95;4.63;;;13.90;99.90;;;;;;5141045;27;20051;-33
2023/09/13 06:44:33;;;;;;;10.27;2.90;;;14.10;99.90;;;;;;5159159;27;20053;-33
2023/09/13 06:46:59;;;;;;;9.95;2.90;;;13.80;99.90;;;;;;5159026;27;20057;-33
2023/09/13 06:49:25;;;;;;;12.43;2.92;;;13.70;99.90;;;;;;5140617;27;20115;-34
2023/09/13 06:51:51;;;;;;;12.70;3.50;;;13.60;99.90;;;;;;5158580;27;20050;-32
2023/09/13 06:54:20;;;;;;;14.70;3.72;;;13.60;99.90;;;;;;5157744;27;20043;-32
2023/09/13 06:56:45;;;;;;;10.23;2.78;;;13.70;99.90;;;;;;5158071;27;20058;-33
2023/09/13 06:59:11;;;;;;;14.32;2.38;;;14.00;99.90;;;;;;5158319;27;20491;-34
2023/09/13 07:01:38;;;;;;;9.55;2.35;;;14.10;99.90;;;;;;5159604;27;20046;-32
2023/09/13 07:04:04;;;;;;;10.02;2.13;;;13.80;99.90;;;;;;5158803;27;20086;-33
2023/09/13 07:06:30;;;;;;;7.05;1.80;;;14.10;99.90;;;;;;5158701;27;20053;-32
2023/09/13 07:08:56;;;;;;;10.13;2.53;;;13.70;99.90;;;;;;5158623;27;20043;-33
2023/09/13 07:11:25;;;;;;;10.10;2.08;;;13.90;99.90;;;;;;5159105;27;20491;-32
2023/09/13 07:13:51;;;;;;;10.65;2.10;;;13.90;99.90;;;;;;5158569;27;20050;-32
2023/09/13 07:16:17;;;;;;;8.27;2.38;;;14.00;99.90;;;;;;5158507;27;20049;-32
2023/09/13 07:18:43;;;;;;;10.02;1.98;;;13.70;99.90;;;;;;5140231;27;20047;-33
2023/09/13 07:21:09;;;;;;;13.15;2.58;;;14.00;99.90;;;;;;5158223;27;20042;-33
2023/09/13 07:23:34;;;;;;;13.60;2.35;;;13.80;99.90;;;;;;5157419;27;20095;-32
2023/09/13 07:26:00;;;;;;;9.05;2.38;;;13.80;99.90;;;;;;5158308;27;20110;-33
2023/09/13 07:28:26;;;;;;;8.15;2.20;;;14.10;99.90;;;;;;5159112;27;20069;-32
2023/09/13 07:30:52;;;;;;;14.80;3.40;;;13.80;99.90;;;;;;5157748;27;20039;-33
2023/09/13 07:33:18;;;;;;;9.38;2.67;;;13.80;99.90;;;;;;5158178;27;20054;-34
2023/09/13 07:35:44;;;;;;;10.75;2.78;;;14.00;99.90;;;;;;5139805;27;20043;-33
2023/09/13 07:38:10;;;;;;;12.43;2.90;;;13.80;99.90;;;;;;5138457;27;20480;-32
2023/09/13 07:40:39;;;;;;;14.65;2.70;;;13.90;99.90;;;;;;5157595;27;20039;-33
2023/09/13 07:43:08;;;;;;;12.52;3.30;;;14.10;99.90;;;;;;5157971;27;20053;-32
2023/09/13 07:45:34;;;;;;;10.10;3.05;;;14.00;99.90;;;;;;5157007;27;20122;-33
2023/09/13 07:48:03;;;;;;;13.90;2.50;;;13.90;99.90;;;;;;5157839;27;20046;-34
2023/09/13 07:50:36;;;;;;;10.63;2.30;;;14.10;99.90;;;;;;5158120;27;20042;-34
2023/09/13 07:53:03;;;;;;;14.15;2.35;;;14.20;99.90;;;;;;5157801;27;20047;-34
2023/09/13 07:55:29;;;;;;;10.27;2.45;;;14.40;99.90;;;;;;5157576;27;20484;-33
2023/09/13 07:57:55;;;;;;;20.38;4.07;;;14.30;99.90;;;;;;5157091;27;20055;-33
2023/09/13 08:00:20;;;;;;;13.02;2.75;;;14.30;99.90;;;;;;5156687;27;20049;-35
2023/09/13 08:02:47;;;;;;;9.77;2.65;;;14.40;99.90;;;;;;5157518;27;20041;-33
2023/09/13 08:05:13;;;;;;;10.02;2.08;;;14.50;99.90;;;;;;5139521;27;20569;-33
2023/09/13 08:07:38;;;;;;;11.82;2.45;;;14.60;99.90;;;;;;5157450;27;20046;-33
2023/09/13 08:10:05;;;;;;;9.00;2.55;;;14.60;99.90;;;;;;5157340;27;20053;-34
2023/09/13 08:12:31;;;;;;;11.85;2.22;;;14.70;99.90;;;;;;5157938;27;20043;-33
2023/09/13 08:14:57;;;;;;;12.10;2.80;;;14.60;99.90;;;;;;5157387;27;20064;-33
2023/09/13 08:17:22;;;;;;;16.10;2.83;;;14.80;99.90;;;;;;5157351;27;20035;-33
2023/09/13 08:19:49;;;;;;;14.10;2.22;;;14.80;99.90;;;;;;5156068;27;20042;-33
2023/09/13 08:22:15;;;;;;;11.45;2.15;;;14.90;99.90;;;;;;5157688;27;20043;-34
2023/09/13 08:24:40;;;;;;;10.82;2.17;;;14.90;99.90;;;;;;5156069;27;20034;-32
2023/09/13 08:27:06;;;;;;;11.63;1.80;;;15.00;99.90;;;;;;5157079;27;20054;-33
2023/09/13 08:29:33;;;;;;;10.07;2.03;;;15.00;99.90;;;;;;5157044;27;20468;-33
2023/09/13 08:31:59;;;;;;;11.73;2.28;;;15.20;99.90;;;;;;5156672;27;20401;-33
2023/09/13 08:34:25;;;;;;;11.23;2.33;;;15.20;99.90;;;;;;5139481;27;20057;-33
2023/09/13 08:36:53;;;;;;;9.77;2.83;;;15.30;99.90;;;;;;5156810;27;20053;-33
2023/09/13 08:39:19;;;;;;;7.78;1.73;;;15.30;99.90;;;;;;5157067;27;20051;-32
2023/09/13 08:41:50;;;;;;;12.27;1.70;;;15.20;99.90;;;;;;5157077;27;20468;-31
2023/09/13 08:44:21;;;;;;;10.82;1.92;;;15.00;99.90;;;;;;5155964;27;20101;-31
2023/09/13 08:46:49;;;;;;;7.88;1.63;;;15.00;99.90;;;;;;5155701;27;20160;-32
2023/09/13 08:49:20;;;;;;;12.68;3.25;;;14.90;99.90;;;;;;5156596;27;20054;-32
2023/09/13 08:51:46;;;;;;;14.48;3.13;;;14.80;99.90;;;;;;5156503;27;20552;-33
2023/09/13 08:54:14;;;;;;;17.80;3.78;;;14.70;99.90;;;;;;5156581;27;20047;-32
2023/09/13 08:56:45;;;;;;;22.08;4.13;;;14.70;99.90;;;;;;5155913;27;20084;-33
2023/09/13 08:59:15;;;;;;;19.40;3.17;;;14.70;99.90;;;;;;5156813;27;20046;-33
2023/09/13 09:01:53;;;;;;;14.60;3.05;;;14.70;99.90;;;;;;5156477;27;20038;-33
2023/09/13 09:04:20;;;;;;;11.82;2.92;;;14.70;99.90;;;;;;5156694;27;20480;-32
2023/09/13 09:06:46;;;;;;;12.43;3.65;;;14.80;99.90;;;;;;5156262;27;20042;-32
2023/09/13 09:09:27;;;;;;;12.82;2.72;;;14.70;99.90;;;;;;5156006;27;20475;-33
2023/09/13 09:11:58;;;;;;;10.85;3.17;;;14.70;99.90;;;;;;5156525;27;20130;-32
2023/09/13 09:14:26;;;;;;;11.27;2.42;;;14.60;99.90;;;;;;5157024;27;20125;-32
2023/09/13 09:16:53;;;;;;;18.42;3.30;;;14.60;99.90;;;;;;5156164;27;20441;-31
2023/09/13 09:19:20;;;;;;;15.40;3.58;;;14.60;99.90;;;;;;5156022;27;20476;-32
2023/09/13 09:21:46;;;;;;;13.25;4.15;;;14.60;99.90;;;;;;5155966;27;20042;-32
2023/09/13 09:24:12;;;;;;;9.10;2.60;;;14.60;99.90;;;;;;5155694;27;20551;-31
2023/09/13 09:26:37;;;;;;;4.38;2.25;;;14.60;99.90;;;;;;5156656;27;20176;-31
2023/09/13 09:29:10;;;;;;;11.48;2.35;;;14.60;99.90;;;;;;5156205;27;20043;-31
2023/09/13 09:31:38;;;;;;;10.00;2.72;;;14.80;99.90;;;;;;5155943;27;20495;-31
2023/09/13 09:34:04;;;;;;;6.00;2.13;;;14.90;99.90;;;;;;5154716;27;20039;-31
2023/09/13 09:36:34;;;;;;;9.48;1.83;;;15.00;99.90;;;;;;5155864;27;20042;-31
2023/09/13 09:39:01;;;;;;;6.70;2.47;;;15.10;99.90;;;;;;5156662;27;20131;-30
2023/09/13 09:41:32;;;;;;;8.23;2.95;;;15.20;99.90;;;;;;5154780;27;20050;-30
2023/09/13 09:43:58;;;;;;;9.23;2.63;;;15.40;99.90;;;;;;5154564;27;20042;-31
2023/09/13 09:46:23;;;;;;;7.78;2.00;;;15.30;99.90;;;;;;5155655;27;20043;-30
2023/09/13 09:48:51;;;;;;;5.63;2.35;;;15.50;99.90;;;;;;5155825;27;20047;-30
2023/09/13 09:51:17;;;;;;;7.47;2.35;;;15.60;99.90;;;;;;5155518;27;20468;-29
2023/09/13 09:53:43;;;;;;;7.18;2.45;;;15.80;99.90;;;;;;5155538;27;20072;-29
2023/09/13 09:56:11;;;;;;;10.10;2.50;;;16.10;99.90;;;;;;5155559;27;20043;-29
2023/09/13 09:58:37;;;;;;;5.03;2.00;;;16.40;99.90;;;;;;5155849;27;20426;-29
2023/09/13 10:01:03;;;;;;;7.50;3.08;;;16.60;99.90;;;;;;5154811;27;20045;-28
2023/09/13 10:03:35;;;;;;;5.68;2.08;;;17.20;99.90;;;;;;5154465;27;20045;-28
2023/09/13 10:06:03;;;;;;;8.87;2.17;;;18.20;99.90;;;;;;5156010;27;20054;-28
2023/09/13 10:08:46;;;;;;;7.90;2.60;;;19.00;99.90;;;;;;5155397;27;20082;-28
2023/09/13 10:11:14;;;;;;;4.32;2.10;;;19.80;99.90;;;;;;5155302;27;20060;-29
2023/09/13 10:13:41;;;;;;;5.53;1.67;;;20.30;99.90;;;;;;5155333;27;20043;-27
2023/09/13 10:16:09;;;;;;;7.97;2.50;;;20.60;99.90;;;;;;5154743;27;20050;-27
2023/09/13 10:18:46;;;;;;;6.75;2.17;;;20.70;6.50;;;;;;5154596;27;20133;-28
2023/09/13 10:21:24;;;;;;;5.38;2.75;;;21.40;1.00;;;;;;5154062;27;20065;-27
2023/09/13 10:23:56;;;;;;;6.00;2.58;;;21.70;1.00;;;;;;5155337;27;20043;-27
2023/09/13 10:26:23;;;;;;;6.22;2.10;;;21.70;42.70;;;;;;5154911;27;20448;-27
2023/09/13 10:28:51;;;;;;;6.47;2.55;;;21.60;1.00;;;;;;5154528;27;20043;-27
2023/09/13 10:31:19;;;;;;;6.97;2.60;;;21.50;99.90;;;;;;5155713;27;20403;-27
2023/09/13 10:33:51;;;;;;;7.97;2.65;;;21.50;1.00;;;;;;5155151;27;20043;-26
2023/09/13 10:36:33;;;;;;;6.05;2.42;;;21.30;99.90;;;;;;5156080;27;20046;-26
2023/09/13 10:39:11;;;;;;;5.40;2.30;;;20.80;99.90;;;;;;5155172;27;20046;-26
2023/09/13 10:42:05;;;;;;;16.30;3.10;;;20.80;1.00;;;;;;5155158;27;20042;-26
2023/09/13 10:44:33;;;;;;;3.90;2.08;;;20.90;1.00;;;;;;5146516;27;20058;-26
2023/09/13 10:46:59;;;;;;;3.55;1.60;;;21.50;99.90;;;;;;5155508;27;20071;-26
2023/09/13 10:49:25;;;;;;;8.07;2.10;;;22.00;8.30;;;;;;5155584;27;20039;-26
2023/09/13 10:51:53;;;;;;;4.72;1.80;;;22.70;1.00;;;;;;5155501;27;20106;-26
2023/09/13 10:54:20;;;;;;;6.20;1.95;;;23.10;99.90;;;;;;5155520;27;20190;-26
2023/09/13 10:56:48;;;;;;;3.50;1.35;;;23.30;99.90;;;;;;5154769;27;20084;-27
2023/09/13 10:59:18;;;;;;;4.10;2.08;;;22.80;52.50;;;;;;5154275;27;20119;-26
2023/09/13 11:01:46;;;;;;;5.20;1.67;;;22.00;99.90;;;;;;5154562;27;20480;-27
2023/09/13 11:04:21;;;;;;;6.13;1.90;;;21.70;1.00;;;;;;5154858;27;20047;-26
2023/09/13 11:06:48;;;;;;;5.50;2.00;;;21.70;99.90;;;;;;5154828;27;20089;-26
2023/09/13 11:09:16;;;;;;;6.25;2.05;;;21.00;1.00;;;;;;5154524;27;20629;-26
2023/09/13 11:11:49;;;;;;;4.78;1.92;;;20.40;99.90;;;;;;5156260;27;20038;-26
2023/09/13 11:14:19;;;;;;;7.80;1.73;;;20.30;1.00;;;;;;5158889;27;20039;-26
2023/09/13 11:16:48;;;;;;;5.53;1.85;;;21.00;99.90;;;;;;5158577;27;20043;-26
2023/09/13 11:19:17;;;;;;;4.55;1.67;;;21.40;1.00;;;;;;5158479;27;20084;-26
2023/09/13 11:21:51;;;;;;;8.65;2.45;;;21.50;1.00;;;;;;5159080;27;20046;-26
2023/09/13 11:24:36;;;;;;;7.07;1.85;;;21.40;99.90;;;;;;5158669;27;20480;-26
2023/09/13 11:27:20;;;;;;;6.00;1.45;;;21.40;1.00;;;;;;5158348;27;20046;-26
2023/09/13 11:29:52;;;;;;;6.55;1.52;;;21.50;99.90;;;;;;5157951;27;20455;-26
2023/09/13 11:32:26;;;;;;;6.63;1.50;;;21.00;99.90;;;;;;5158227;27;20472;-26
2023/09/13 11:34:56;;;;;;;6.63;1.40;;;20.20;99.90;;;;;;5157040;27;20074;-26
2023/09/13 11:37:24;;;;;;;8.60;2.47;;;19.70;1.00;;;;;;5158121;27;20085;-25
2023/09/13 11:40:10;;;;;;;4.22;1.10;;;19.30;99.90;;;;;;5158050;27;20045;-25
2023/09/13 11:42:37;;;;;;;5.88;1.33;;;19.00;43.10;;;;;;5158966;27;20046;-26
2023/09/13 11:45:07;;;;;;;5.90;1.48;;;18.80;1.00;;;;;;5156801;27;20057;-26
2023/09/13 11:47:36;;;;;;;4.82;1.58;;;18.60;99.90;;;;;;5157759;27;20472;-26
2023/09/13 11:50:06;;;;;;;4.38;1.30;;;18.30;1.00;;;;;;5157845;27;20046;-25
2023/09/13 11:53:09;;;;;;;7.20;1.23;;;18.70;4.70;;;;;;5157797;27;20143;-26
2023/09/13 11:55:42;;;;;;;7.47;1.63;;;20.10;1.00;;;;;;5158360;27;20046;-26
2023/09/13 11:58:14;;;;;;;7.45;1.60;;;21.20;1.00;;;;;;5156510;27;20082;-26
2023/09/13 12:00:44;;;;;;;6.78;1.75;;;21.80;99.90;;;;;;5158852;27;20065;-26
2023/09/13 12:03:10;;;;;;;4.78;1.13;;;22.70;23.40;;;;;;5156439;27;20043;-27
2023/09/13 12:05:38;;;;;;;7.80;2.20;;;23.10;1.00;;;;;;5157880;27;20043;-26
2023/09/13 12:08:27;;;;;;;4.75;1.30;;;22.60;99.90;;;;;;5156400;27;20038;-26
2023/09/13 12:10:55;;;;;;;8.68;1.70;;;21.80;99.90;;;;;;5157762;27;20046;-27
2023/09/13 12:13:38;;;;;;;7.13;1.25;;;21.00;2.40;;;;;;5157725;27;20514;-26
2023/09/13 12:16:04;;;;;;;7.40;2.28;;;19.60;1.00;;;;;;5157372;27;20051;-26
2023/09/13 12:18:31;;;;;;;5.68;1.77;;;18.50;1.00;;;;;;5157639;27;20045;-26
2023/09/13 12:20:58;;;;;;;7.03;2.30;;;17.80;99.90;;;;;;5157300;27;20035;-26
2023/09/13 12:23:27;;;;;;;9.02;3.22;;;17.60;1.00;;;;;;5155588;27;20058;-26
2023/09/13 12:25:56;;;;;;;5.95;1.52;;;17.40;44.80;;;;;;5157251;27;20125;-26
2023/09/13 12:28:31;;;;;;;8.52;1.58;;;17.20;99.90;;;;;;5157162;27;20086;-26
2023/09/13 12:30:58;;;;;;;10.77;1.95;;;17.10;1.00;;;;;;5155785;27;20121;-26
2023/09/13 12:33:25;;;;;;;6.35;2.03;;;16.70;1.00;;;;;;5155873;27;20523;-26
2023/09/13 12:35:51;;;;;;;10.32;1.70;;;16.70;1.00;;;;;;5155880;27;20058;-26
2023/09/13 12:38:19;;;;;;;7.20;1.40;;;16.60;99.90;;;;;;5156742;27;20042;-26
2023/09/13 12:40:54;;;;;;;6.55;1.83;;;16.60;99.90;;;;;;5139553;27;20093;-26
2023/09/13 12:43:21;;;;;;;7.97;1.25;;;16.60;99.90;;;;;;5156695;27;20138;-25
2023/09/13 12:45:48;;;;;;;9.00;2.08;;;16.60;1.00;;;;;;5156562;27;20050;-25
2023/09/13 12:48:14;;;;;;;7.90;2.10;;;16.60;1.00;;;;;;5156564;27;20484;-26